Sonic Adventure (DX): Overall Rankings

Records: Times | Rings | Scores | Races | Bosses | Freestyle
Leaders: Times | Rings | Scores | Races | Bosses | Freestyle | Overall
Rank Player Percent Points Date Grade
1 Sonicspeedruner 97.9% 348 07-19-18 S
2 Gamepro011 97.9% 361 07-19-18 A
3 DarkPolarNight 96.7% 572 07-19-18 A
4 Jawzun 93.0% 1199 07-19-18 A
5 Dashjump 91.6% 1457 07-19-18 A
6 DarkspinesSonic 89.7% 1782 07-19-18 A
7 Avento128bits 89.5% 1815 07-19-18 A
8 ike6252 89.3% 1852 07-19-18 A
9 F-Man 87.5% 2166 07-19-18 A
10 Coolfansonic 87.0% 2244 07-19-18 A
11 HyperSonic7701 84.2% 2741 07-19-18 A
12 TheRealShadnic 83.8% 2799 07-19-18 A
13 yoshifan 82.5% 3036 07-19-18 A
14 frankoredstrato 82.1% 3099 07-19-18 A
15 francisco 81.2% 3264 07-19-18 A
16 Marth 81.0% 3289 07-19-18 A
17 InferSaime 79.7% 3518 07-19-18 B
18 PfoSonic 79.3% 3587 07-19-18 B
19 Paragod 78.9% 3664 07-19-18 B
20 THC98 78.0% 3808 07-19-18 B
21 Stefan 75.6% 4226 07-19-18 B
22 RPGnutter 73.5% 4593 07-19-18 B
23 bertin 73.4% 4617 07-19-18 B
24 sonicam 71.3% 4984 07-19-18 B
25 drminus 70.1% 5193 07-19-18 B
26 Dekuboy 68.9% 5398 07-19-18 B
27 chainchumper 65.9% 5923 07-19-18 B
28 Combo 65.4% 5994 07-19-18 B
29 chaos shadow 64.8% 6108 07-19-18 B
30 SkyLights 64.3% 6201 07-19-18 B
31 Diamond 62.2% 6566 07-19-18 B
32 Auriman1 60.1% 6929 07-19-18 B
33 GerbilSoft 60.0% 6935 07-19-18 B
34 OmegaDJ 60.0% 6937 07-19-18 B
35 magnum12 59.2% 7075 07-19-18 C
36 Thorn 57.1% 7447 07-19-18 C
37 P1 Pause 56.9% 7473 07-19-18 C
38 mike89 55.9% 7652 07-19-18 C
39 Dave Cramer 53.9% 8000 07-19-18 C
39 Groudon199 53.9% 8000 07-19-18 C
41 Parax 53.1% 8132 07-19-18 C
42 Shadow Jacky 52.8% 8199 07-19-18 C
43 Psymar 47.8% 9064 07-19-18 C
44 Arch 46.8% 9228 07-19-18 C
45 Chao_Fan 46.0% 9378 07-19-18 C
46 mauserman 45.1% 9530 07-19-18 C
47 Quartz 44.8% 9573 07-19-18 C
48 teamblackarms 44.1% 9704 07-19-18 C
49 Calfd 43.5% 9803 07-19-18 C
50 Psyknux 43.2% 9853 07-19-18 C
51 James_Bertolli 43.1% 9879 07-19-18 C
52 Cyan Ryan 42.9% 9909 07-19-18 C
53 NintenDan 42.7% 9951 07-19-18 C
54 Webber3000 42.1% 10053 07-19-18 C
55 Turbos 42.0% 10068 07-19-18 C
56 Ring Rush 41.8% 10105 07-19-18 C
57 Cream147 41.6% 10142 07-19-18 C
58 videogamemaster777 41.4% 10169 07-19-18 C
59 Fr3nZy 41.4% 10176 07-19-18 C
60 Siavash Tazari 41.2% 10215 07-19-18 C
61 buddychaos0415 40.6% 10303 07-19-18 C
62 SadisticMystic 40.1% 10390 07-19-18 C
63 ethmar 39.9% 10441 07-19-18 D
64 eggFL 39.3% 10532 07-19-18 D
65 SB737 37.8% 10789 07-19-18 D
66 supersonic465 37.3% 10892 07-19-18 D
67 supersonicfan 36.6% 11000 07-19-18 D
68 FuzZerd 35.5% 11193 07-19-18 D
69 Aitamen 35.0% 11281 07-19-18 D
70 elecmouse101 34.7% 11344 07-19-18 D
71 BigAL49 34.6% 11360 07-19-18 D
72 danieldude 34.5% 11373 07-19-18 D
73 Austinf 33.6% 11519 07-19-18 D
74 metanightmare22 33.4% 11569 07-19-18 D
75 dabestgamer 32.9% 11645 07-19-18 D
76 MiStEr_ShAoLiN 32.8% 11668 07-19-18 D
77 Andrea Ritsu 32.1% 11794 07-19-18 D
78 itsPersonnal 31.7% 11851 07-19-18 D
79 Cybrax 31.1% 11959 07-19-18 D
80 JamminX42 30.9% 11995 07-19-18 D
81 SilvertheAlmighty 30.8% 12019 07-19-18 D
82 Nim 30.7% 12037 07-19-18 D
83 Mastakirby 30.5% 12068 07-19-18 D
84 VMU Player Banned 29.0% 12319 07-19-18 D
85 Omega Rafael Santos 28.6% 12398 07-19-18 D
86 Staf 28.4% 12425 07-19-18 D
87 The T 28.1% 12483 07-19-18 D
88 EngiNerd 27.8% 12529 07-19-18 D
89 lordmetalsonic 27.3% 12617 07-19-18 D
90 Hipertails12 26.9% 12685 07-19-18 D
91 welldooder64 26.8% 12701 07-19-18 D
92 GreatStar 26.6% 12749 07-19-18 D
93 The Great Lord Mick 26.4% 12776 07-19-18 D
94 Sondow 26.4% 12784 07-19-18 D
95 LinksDarkArrows 26.1% 12834 07-19-18 D
96 Skylace 25.2% 12979 07-19-18 D
97 a_moustache 24.2% 13156 07-19-18 D
98 Rolken 23.7% 13249 07-19-18 D
99 Niczur 23.3% 13313 07-19-18 D
100 Xia 22.1% 13530 07-19-18 D
101 Spinballwizard 22.0% 13539 07-19-18 D
102 Kogen Player Banned 22.0% 13545 07-19-18 D
103 Twilisailor 21.6% 13614 07-19-18 D
104 f0rever_zer0 21.5% 13632 07-19-18 D
105 Don 21.4% 13654 07-19-18 D
106 Cutiefox 21.3% 13659 07-19-18 D
107 Game_Complete 21.3% 13669 07-19-18 D
108 Miles9999 21.1% 13697 07-19-18 D
109 andres430 20.6% 13777 07-19-18 D
110 Cruizer 20.5% 13807 07-19-18 D
111 iSonicKid2K 20.4% 13827 07-19-18 D
112 SADXTryHard 20.1% 13867 07-19-18 D
113 GarnetPrincess 19.6% 13953 07-19-18 E
114 N 19.4% 13999 07-19-18 E
115 AxlThunder 19.0% 14055 07-19-18 E
116 knuckles_sonic8 18.6% 14141 07-19-18 E
117 The Knuckles Chao 18.3% 14190 07-19-18 E
118 KinkyCadence 18.2% 14194 07-19-18 E
119 Termon 17.9% 14253 07-19-18 E
120 Team_Yoshi 17.8% 14272 07-19-18 E
121 LittleBigness 17.8% 14275 07-19-18 E
122 SonicWinDX 17.6% 14299 07-19-18 E
123 FoxBoy 17.5% 14317 07-19-18 E
124 CoEmpathy 17.4% 14347 07-19-18 E
125 Drakodan 16.9% 14428 07-19-18 E
126 Sonic Singularity 15.9% 14602 07-19-18 E
127 Pokemonmaster888 15.6% 14651 07-19-18 E
128 paulie9990 15.3% 14714 07-19-18 E
129 SilverSonic 14.6% 14823 07-19-18 E
130 MPit08 14.5% 14850 07-19-18 E
131 WeegeeZV 14.2% 14890 07-19-18 E
132 koinu93 14.1% 14908 07-19-18 E
133 Mo Player Banned 14.1% 14919 07-19-18 E
134 HyperSonic64 13.7% 14992 07-19-18 E
135 Cod4Scopes 13.6% 14999 07-19-18 E
136 booo95 13.5% 15023 07-19-18 E
137 Chawkk 13.4% 15030 07-19-18 E
138 Jerzia 13.4% 15039 07-19-18 E
139 SuperSonic101 13.1% 15088 07-19-18 E
140 Hunters13 13.1% 15089 07-19-18 E
141 Maxinfamily 13.0% 15105 07-19-18 E
142 Kanimayo_Jp 12.6% 15169 07-19-18 E
143 LilZero 12.6% 15177 07-19-18 E
144 BrokenArthritis 12.5% 15198 07-19-18 E
145 PsyBorg 12.4% 15217 07-19-18 E
146 Flying Fox 12.3% 15219 07-19-18 E
147 Therio 12.0% 15277 07-19-18 E
148 sonicspeed 11.9% 15299 07-19-18 E
149 douglas 11.8% 15317 07-19-18 E
150 Matt_TY 11.4% 15384 07-19-18 E
150 thewaytodawnnn 11.4% 15384 07-19-18 E
152 ModifiedMonkee 11.2% 15416 07-19-18 E
153 Cooljay 10.9% 15471 07-19-18 E
154 SuperBlitzCraig 10.7% 15502 07-19-18 E
155 joecoolgames 10.7% 15508 07-19-18 E
156 SeaWolf 10.6% 15517 07-19-18 E
157 videogamer1014 10.5% 15546 07-19-18 E
158 AC-Tygo 10.2% 15589 07-19-18 E
159 welshmoose05 10.2% 15595 07-19-18 E
160 crazy1993 10.0% 15632 07-19-18 E
161 OddCook 9.9% 15637 07-19-18 E
162 TFEC Headshot 9.8% 15657 07-19-18 E
163 Mcshuggets 9.7% 15679 07-19-18 E
164 niscool 9.5% 15720 07-19-18 E
165 Mariobutch 9.3% 15741 07-19-18 E
166 Irregular Zero 9.3% 15748 07-19-18 E
167 nuckrieg 9.3% 15754 07-19-18 E
168 SonicAD 9.1% 15776 07-19-18 E
169 Shadowthegreat 9.0% 15799 07-19-18 E
169 superjupi 9.0% 15799 07-19-18 E
171 SirTobbii 8.9% 15810 07-19-18 E
172 sonamyfan666 8.7% 15852 07-19-18 E
173 iarebored 8.7% 15859 07-19-18 E
174 Powerjohn25 8.6% 15865 07-19-18 E
175 SaviourDC 8.6% 15867 07-19-18 E
176 SonicKnuckles 8.6% 15872 07-19-18 E
177 Werey 8.3% 15930 07-19-18 E
178 adf 8.2% 15935 07-19-18 E
179 Megaman EXE565 8.0% 15980 07-19-18 E
180 Platformer 7.6% 16045 07-19-18 E
181 ArcticDragon 7.5% 16054 07-19-18 E
182 timpkmn89 7.5% 16062 07-19-18 E
183 wheatrich 7.4% 16079 07-19-18 E
184 Swift Hobo 7.3% 16088 07-19-18 E
185 FocusSight64 7.3% 16094 07-19-18 E
186 Rickyman48 7.1% 16128 07-19-18 E
187 KitsuneYamaro 7.0% 16144 07-19-18 E
188 Triseena 6.9% 16165 07-19-18 E
189 Destroyer121121 6.6% 16220 07-19-18 E
190 dShadow 6.6% 16226 07-19-18 E
191 Starlight Sable 6.5% 16232 07-19-18 E
192 CyberShadow 6.5% 16234 07-19-18 E
193 slade23 6.5% 16239 07-19-18 E
194 IsisDazs 6.3% 16265 07-19-18 E
195 BlankTH 6.1% 16300 07-19-18 E
196 Monkeh 6.1% 16309 07-19-18 E
197 Badlex727 5.9% 16334 07-19-18 E
198 Redd 5.9% 16338 07-19-18 E
199 SonicU260 5.9% 16343 07-19-18 E
200 Richied 5.8% 16358 07-19-18 E
201 DaDude 5.7% 16376 07-19-18 E
202 Swinkly 5.7% 16378 07-19-18 E
203 Crispian 5.7% 16381 07-19-18 E
204 Vicklaw 5.6% 16390 07-19-18 E
205 sonicd5 5.6% 16392 07-19-18 E
206 Zip 5.6% 16397 07-19-18 E
207 VeritasDL 5.2% 16458 07-19-18 E
208 ALundstrom10 5.2% 16462 07-19-18 E
209 tal39h 5.2% 16467 07-19-18 E
210 Kirbymon30 5.1% 16479 07-19-18 E
211 soniccoloursunleashed 5.0% 16498 07-19-18 E
212 Drflash55 4.9% 16512 07-19-18 E
213 Bass 4.9% 16516 07-19-18 E
214 neaolas 4.8% 16539 07-19-18 E
215 superiorsonic 4.7% 16543 07-19-18 E
216 zapp 4.7% 16554 07-19-18 E
217 Yish 4.6% 16557 07-19-18 E
218 UninspiredUsername 4.6% 16564 07-19-18 E
219 Sonicsuperstar1 4.5% 16577 07-19-18 E
220 gamefreak1292 4.5% 16584 07-19-18 E
221 Sora_yx 4.3% 16615 07-19-18 E
222 Chaos_Overlord 4.2% 16641 07-19-18 E
223 TakaRikka 4.0% 16662 07-19-18 E
224 Valfore 4.0% 16666 07-19-18 E
225 Dage4Aquatic 3.9% 16690 07-19-18 E
226 ShinigamiMachine 3.8% 16703 07-19-18 E
227 Regano1000 3.8% 16709 07-19-18 E
228 MK 3.7% 16720 07-19-18 E
229 Ace747 3.6% 16743 07-19-18 E
230 Jua Rever 3.4% 16766 07-19-18 E
231 Illidan 3.2% 16813 07-19-18 E
232 HHNNBBHHN 3.1% 16820 07-19-18 E
233 Brian_pso 3.1% 16821 07-19-18 E
234 Sithwarrior26 3.1% 16823 07-19-18 E
235 Venick409 3.1% 16824 07-19-18 E
236 nman36 3.1% 16826 07-19-18 E
237 Egor305 3.0% 16846 07-19-18 E
238 SkyBon 3.0% 16847 07-19-18 E
239 ingx24 2.9% 16853 07-19-18 E
240 TheChaosEmeraIds 2.9% 16857 07-19-18 E
241 R3FR4G 2.9% 16863 07-19-18 E
242 dekki1234 2.9% 16864 07-19-18 E
242 Nickson98 2.9% 16864 07-19-18 E
244 FSSRandomvids 2.8% 16878 07-19-18 E
245 Fozer 2.8% 16879 07-19-18 E
246 Colomb_30 2.8% 16883 07-19-18 E
247 Aiko 2.7% 16896 07-19-18 E
248 sonic29887 2.7% 16898 07-19-18 E
249 TheUltraBlur 2.6% 16906 07-19-18 E
250 1stKirbyever 2.6% 16910 07-19-18 E
251 TimTH 2.5% 16927 07-19-18 E
252 Th4tN1nj4Turtl3 2.4% 16949 07-19-18 E
253 Cort_pso 2.3% 16959 07-19-18 E
254 ieatatsonic 2.3% 16964 07-19-18 E
255 Mariosonic15 2.3% 16972 07-19-18 E
256 Doom-9 2.2% 16977 07-19-18 E
257 Artie 2.2% 16988 07-19-18 E
257 MStitomix 2.2% 16988 07-19-18 E
259 Sm4sh 2.1% 16992 07-19-18 E
260 HermitHelmet 2.1% 16993 07-19-18 E
261 SuperSonic71087 2.0% 17011 07-19-18 E
262 Got4n 2.0% 17015 07-19-18 E
263 xXMegaManXx 2.0% 17019 07-19-18 E
264 Jose_15 2.0% 17025 07-19-18 E
265 Questionguy555 1.9% 17026 07-19-18 E
266 djmat 1.9% 17039 07-19-18 E
267 SuperSonicfan9595 1.8% 17045 07-19-18 E
268 Heroes_Hater 1.7% 17063 07-19-18 E
268 sonicandamy Player Banned 1.7% 17063 07-19-18 E
270 LancexExWx 1.7% 17072 07-19-18 E
270 Paixii 1.7% 17072 07-19-18 E
272 son1cgu1tar 1.7% 17076 07-19-18 E
273 Mankster101 1.6% 17089 07-19-18 E
274 BallzeH 1.6% 17090 07-19-18 E
275 BecauseWarAnvil 1.5% 17097 07-19-18 E
276 Jamixesa 1.5% 17103 07-19-18 E
277 SpiritDragon1995 1.5% 17109 07-19-18 E
278 Shanekilz 1.5% 17112 07-19-18 E
279 Crydio 1.4% 17113 07-19-18 E
280 MarewBFN 1.4% 17129 07-19-18 E
281 stanski 1.3% 17132 07-19-18 E
282 Sonique Hedgehog 1.3% 17138 07-19-18 E
283 Blue Infamy 1.3% 17147 07-19-18 E
284 p0ker 1.2% 17149 07-19-18 E
285 ArthurVGCP 1.2% 17152 07-19-18 E
286 ErrortheCucco 1.2% 17158 07-19-18 E
287 Rikum22 1.2% 17161 07-19-18 E
288 Arthas 1.1% 17166 07-19-18 E
289 sonic1001 1.1% 17169 07-19-18 E
290 syco1098 1.1% 17176 07-19-18 E
291 AJSIV 1.1% 17178 07-19-18 E
291 WingedInsignia 1.1% 17178 07-19-18 E
293 Sonic the Hedgehod16 1.1% 17181 07-19-18 E
294 ASINISTERTACO 1.0% 17188 07-19-18 E
295 sonicfan9 1.0% 17194 07-19-18 E
296 BlackArmsShadow 0.9% 17202 07-19-18 E
296 themachoman202 0.9% 17202 07-19-18 E
298 darkstarblaze 0.9% 17206 07-19-18 E
299 shadowblast63 Player Banned 0.9% 17209 07-19-18 E
300 Fivavoa 0.9% 17212 07-19-18 E
301 MastaToken 0.9% 17213 07-19-18 E
302 Greham Adelphis 0.9% 17214 07-19-18 E
302 Mr. Jones 0.9% 17214 07-19-18 E
304 arcfx1985 0.8% 17217 07-19-18 E
304 Ben1502 0.8% 17217 07-19-18 E
306 TommyeAsY 0.8% 17220 07-19-18 E
307 ptorflaxendrosis 0.8% 17221 07-19-18 E
308 FlandreScarlet9999vr 0.8% 17225 07-19-18 E
308 Gvozdevik 0.8% 17225 07-19-18 E
308 Knuckles 0.8% 17225 07-19-18 E
311 Zeldocto 0.8% 17227 07-19-18 E
312 KaM Mark MaK 0.8% 17231 07-19-18 E
313 BeeAwwb 0.8% 17233 07-19-18 E
314 ShadouZaHejjihoggu 0.7% 17238 07-19-18 E
315 Sarger001 0.7% 17243 07-19-18 E
316 Sonic The Star 0.7% 17246 07-19-18 E
317 darkersupershadic 0.7% 17247 07-19-18 E
317 dragondragon18 0.7% 17247 07-19-18 E
317 Sonic62 0.7% 17247 07-19-18 E
320 Sogeking 0.7% 17249 07-19-18 E
321 Shadygamerfreak 0.6% 17254 07-19-18 E
322 Grady219 0.6% 17255 07-19-18 E
322 SonicK100 0.6% 17255 07-19-18 E
324 BioShadow 0.6% 17256 07-19-18 E
325 Jawaah 0.6% 17262 07-19-18 E
326 Antek 0.6% 17264 07-19-18 E
327 Klaus 0.6% 17266 07-19-18 E
327 SilverK 0.6% 17266 07-19-18 E
329 SpinDashMaster 0.5% 17270 07-19-18 E
330 Videogamer123 0.5% 17276 07-19-18 E
331 oTaiIilLsS 0.4% 17291 07-19-18 E
332 isaihtb11 0.4% 17293 07-19-18 E
333 zaktu40 0.4% 17294 07-19-18 E
334 OhNoes! 0.4% 17295 07-19-18 E
335 gaara1234 0.4% 17297 07-19-18 E
336 Mad Andy 0.4% 17298 07-19-18 E
337 S-MS32X-S 0.4% 17299 07-19-18 E
338 gamed00d 0.4% 17300 07-19-18 E
339 Mister_Slick 0.3% 17311 07-19-18 E
340 Rush Hero 0.3% 17314 07-19-18 E
340 Sonic06Fan 0.3% 17314 07-19-18 E
342 ChaosNexuss 0.3% 17315 07-19-18 E
343 SonicMega167 0.3% 17320 07-19-18 E
344 Iwannabelink 0.2% 17321 07-19-18 E
345 sonknuck23 0.2% 17325 07-19-18 E
346 gamer1245 0.2% 17334 07-19-18 E
347 DanielTheFalcon 0.2% 17335 07-19-18 E
348 Burningskull123 0.1% 17339 07-19-18 E
349 Sonicontherun 0.1% 17350 07-19-18 E
350 Lil_Dude 0.1% 17355 07-19-18 E
351 antiwwe 0.0% 17356 07-19-18 E
352 Tyrouble 0.0% 17358 07-19-18 E
353 Genuine Hedgehog 0.0% 17359 07-19-18 E
353 SonataSpinDash 0.0% 17359 07-19-18 E
355 Cbwade15 0.0% 17362 07-19-18 E
356 MegabombBlade 0.0% 17373 07-19-18 E
356 neji_hyuuga 0.0% 17373 07-19-18 E
356 Over 0.0% 17373 07-19-18 E
356 sdj6707 Player Banned 0.0% 17373 07-19-18 E
356 Tran Sonic Fan Player Banned 0.0% 17373 07-19-18 E

This page is using the New Data Table System. [FUTURE]


-- Back to Normal Skin --
Game ID: 3 | Category ID: 10
Hits: 72,931 | Hits This Month: 161 | DB Calls: 16 | Mem Usage: 5.48 MB | Time: 0.23s | Printable

The Sonic Center v3.9
Copyright 2003-2011 by The Sonic Center Team.